Time;durP1;ratioP1;P1;durP2;ratioP2;P2;SDS_P1;SDS_P2;PMS_P1;PMS_P2;Temp;Humidity;BMP_temperature;BMP_pressure;BME280_temperature;BME280_humidity;BME280_pressure;Samples;Min_cycle;Max_cycle;Signal;HPM_P1;HPM_P2
2022/03/09 00:00:58;;;;;;;22.25;8.65;;;;;;;;;;5101149;27;20112;-74
2022/03/09 00:03:23;;;;;;;25.38;9.68;;;;;;;;;;5109172;27;20039;-74
2022/03/09 00:05:49;;;;;;;24.98;9.75;;;;;;;;;;5098135;27;20028;-76
2022/03/09 00:08:14;;;;;;;22.58;9.10;;;;;;;;;;5107669;27;20023;-75
2022/03/09 00:10:40;;;;;;;26.25;9.20;;;;;;;;;;5107765;27;20698;-74
2022/03/09 00:13:05;;;;;;;23.33;8.20;;;;;;;;;;5107146;27;20051;-75
2022/03/09 00:15:31;;;;;;;20.25;8.73;;;;;;;;;;5104795;27;20506;-74
2022/03/09 00:17:56;;;;;;;20.80;8.07;;;;;;;;;;5107761;27;20848;-76
2022/03/09 00:20:21;;;;;;;28.40;9.73;;;;;;;;;;5109123;27;20028;-76
2022/03/09 00:22:47;;;;;;;19.98;8.88;;;;;;;;;;5106963;27;20036;-75
2022/03/09 00:25:12;;;;;;;30.60;9.90;;;;;;;;;;5107512;27;20038;-74
2022/03/09 00:27:38;;;;;;;33.15;10.82;;;;;;;;;;5106687;27;20035;-74
2022/03/09 00:30:05;;;;;;;32.20;10.23;;;;;;;;;;5101386;27;20038;-74
2022/03/09 00:32:30;;;;;;;26.02;10.55;;;;;;;;;;5106840;27;20045;-74
2022/03/09 00:34:56;;;;;;;25.83;10.02;;;;;;;;;;5107030;27;20032;-74
2022/03/09 00:37:21;;;;;;;27.85;9.50;;;;;;;;;;5107771;27;20051;-74
2022/03/09 00:39:46;;;;;;;27.88;10.13;;;;;;;;;;5107147;27;20028;-74
2022/03/09 00:42:12;;;;;;;29.15;9.25;;;;;;;;;;5105822;27;20131;-74
2022/03/09 00:44:37;;;;;;;23.38;8.98;;;;;;;;;;5097251;27;20091;-74
2022/03/09 00:47:03;;;;;;;25.55;8.80;;;;;;;;;;5106214;28;20080;-74
2022/03/09 00:49:28;;;;;;;26.80;9.30;;;;;;;;;;5102829;28;20424;-76
2022/03/09 00:51:53;;;;;;;21.42;8.88;;;;;;;;;;5107867;27;20038;-74
2022/03/09 00:54:19;;;;;;;22.40;8.48;;;;;;;;;;5106643;27;20093;-74
2022/03/09 00:56:44;;;;;;;23.83;9.60;;;;;;;;;;5107139;27;20416;-74
2022/03/09 00:59:10;;;;;;;23.10;8.88;;;;;;;;;;5107156;28;20561;-74
2022/03/09 01:01:35;;;;;;;23.20;9.50;;;;;;;;;;5098479;27;20127;-73
2022/03/09 01:04:00;;;;;;;23.73;8.60;;;;;;;;;;5092971;27;20040;-74
2022/03/09 01:06:25;;;;;;;24.98;8.80;;;;;;;;;;5095336;28;20031;-76
2022/03/09 01:08:51;;;;;;;23.35;8.93;;;;;;;;;;5104966;27;20036;-76
2022/03/09 01:11:16;;;;;;;23.90;9.52;;;;;;;;;;5108544;27;20514;-76
2022/03/09 01:13:41;;;;;;;19.00;8.00;;;;;;;;;;5107841;27;20047;-76
2022/03/09 01:16:07;;;;;;;24.83;9.20;;;;;;;;;;5105167;27;20035;-75
2022/03/09 01:18:32;;;;;;;21.45;8.82;;;;;;;;;;5101978;28;20508;-74
2022/03/09 01:20:58;;;;;;;23.30;9.23;;;;;;;;;;5102847;27;20481;-74
2022/03/09 01:23:23;;;;;;;23.58;9.20;;;;;;;;;;5091741;28;20028;-74
2022/03/09 01:25:48;;;;;;;23.85;9.07;;;;;;;;;;5099200;27;20698;-76
2022/03/09 01:28:14;;;;;;;24.77;9.02;;;;;;;;;;5103174;28;20040;-76
2022/03/09 01:30:39;;;;;;;24.60;9.48;;;;;;;;;;5094700;27;20051;-76
2022/03/09 01:33:05;;;;;;;25.55;8.95;;;;;;;;;;5095643;27;20604;-73
2022/03/09 01:35:30;;;;;;;21.40;8.85;;;;;;;;;;5104837;28;20043;-74
2022/03/09 01:37:55;;;;;;;25.65;9.75;;;;;;;;;;5106170;27;20050;-75
2022/03/09 01:40:21;;;;;;;30.13;10.38;;;;;;;;;;5106319;27;20066;-75
2022/03/09 01:42:46;;;;;;;23.92;9.18;;;;;;;;;;5094207;27;20047;-75
2022/03/09 01:45:13;;;;;;;21.50;8.60;;;;;;;;;;5085551;28;20100;-75
2022/03/09 01:47:39;;;;;;;22.92;8.82;;;;;;;;;;5086876;28;20020;-74
2022/03/09 01:50:08;;;;;;;21.95;8.82;;;;;;;;;;5095587;27;20801;-76
2022/03/09 01:52:34;;;;;;;22.25;8.52;;;;;;;;;;5103208;28;20035;-74
2022/03/09 01:54:59;;;;;;;23.48;9.10;;;;;;;;;;5103296;27;20942;-74
2022/03/09 01:57:25;;;;;;;23.50;9.45;;;;;;;;;;5106238;27;20043;-74
2022/03/09 01:59:51;;;;;;;28.50;9.80;;;;;;;;;;5100359;28;20049;-74
2022/03/09 02:02:17;;;;;;;23.85;8.63;;;;;;;;;;5099814;28;20035;-75
2022/03/09 02:04:43;;;;;;;23.23;8.52;;;;;;;;;;5104708;27;20043;-74
2022/03/09 02:07:10;;;;;;;22.83;8.80;;;;;;;;;;5099169;27;20035;-76
2022/03/09 02:09:42;;;;;;;25.13;10.45;;;;;;;;;;5106862;27;20093;-75
2022/03/09 02:12:12;;;;;;;23.95;8.50;;;;;;;;;;5088796;28;20531;-75
2022/03/09 02:14:45;;;;;;;27.10;9.45;;;;;;;;;;5104370;27;20027;-74
2022/03/09 02:17:12;;;;;;;21.25;8.93;;;;;;;;;;5100027;28;20671;-75
2022/03/09 02:19:39;;;;;;;20.20;8.60;;;;;;;;;;5106738;28;20036;-74
2022/03/09 02:22:12;;;;;;;22.33;9.13;;;;;;;;;;5098009;27;20036;-74
2022/03/09 02:24:38;;;;;;;19.77;9.20;;;;;;;;;;5101819;27;20024;-74
2022/03/09 02:27:04;;;;;;;30.25;10.48;;;;;;;;;;5102956;27;20096;-75
2022/03/09 02:29:29;;;;;;;27.13;10.23;;;;;;;;;;5108337;28;20104;-76
2022/03/09 02:31:54;;;;;;;26.73;10.18;;;;;;;;;;5107256;28;20532;-74
2022/03/09 02:34:20;;;;;;;26.13;9.85;;;;;;;;;;5107039;27;20042;-74
2022/03/09 02:36:45;;;;;;;25.08;9.40;;;;;;;;;;5104331;27;20040;-74
2022/03/09 02:39:10;;;;;;;26.08;9.88;;;;;;;;;;5106923;28;20465;-75
2022/03/09 02:41:36;;;;;;;22.63;8.95;;;;;;;;;;5095539;28;20032;-75
2022/03/09 02:44:02;;;;;;;21.70;8.65;;;;;;;;;;5113635;28;20035;-74
2022/03/09 02:46:27;;;;;;;24.65;8.70;;;;;;;;;;5083476;28;20036;-76
2022/03/09 02:48:53;;;;;;;23.30;9.35;;;;;;;;;;5092245;28;20032;-74
2022/03/09 02:51:18;;;;;;;21.40;7.97;;;;;;;;;;5105920;28;20106;-74
2022/03/09 02:53:43;;;;;;;23.73;8.52;;;;;;;;;;5099884;27;20540;-74
2022/03/09 02:56:09;;;;;;;25.95;9.70;;;;;;;;;;5109523;27;20027;-74
2022/03/09 02:58:34;;;;;;;27.67;9.73;;;;;;;;;;5109881;27;20048;-74
2022/03/09 03:00:59;;;;;;;28.85;9.60;;;;;;;;;;5101708;27;20500;-75
2022/03/09 03:03:25;;;;;;;25.25;8.35;;;;;;;;;;5110353;27;20063;-75
2022/03/09 03:05:51;;;;;;;21.80;9.07;;;;;;;;;;5103394;27;20046;-74
2022/03/09 03:08:16;;;;;;;24.58;10.13;;;;;;;;;;5123497;27;20023;-74
2022/03/09 03:10:42;;;;;;;23.88;8.38;;;;;;;;;;5083205;28;20061;-75
2022/03/09 03:13:07;;;;;;;25.10;9.30;;;;;;;;;;5101216;28;20043;-74
2022/03/09 03:15:32;;;;;;;20.05;8.43;;;;;;;;;;5106515;27;20040;-76
2022/03/09 03:17:58;;;;;;;26.33;9.73;;;;;;;;;;5108511;27;20412;-74
2022/03/09 03:20:23;;;;;;;29.40;9.35;;;;;;;;;;5111087;28;20492;-75
2022/03/09 03:22:48;;;;;;;25.63;9.63;;;;;;;;;;5089946;27;20089;-76
2022/03/09 03:25:14;;;;;;;27.17;9.45;;;;;;;;;;5089984;28;20040;-75
2022/03/09 03:27:39;;;;;;;27.23;9.00;;;;;;;;;;5099772;28;20040;-74
2022/03/09 03:30:05;;;;;;;27.48;9.32;;;;;;;;;;5105864;27;20044;-75
2022/03/09 03:32:30;;;;;;;22.77;9.30;;;;;;;;;;5095273;28;20042;-74
2022/03/09 03:34:56;;;;;;;24.20;9.63;;;;;;;;;;5108444;27;20027;-76
2022/03/09 03:37:21;;;;;;;25.38;8.48;;;;;;;;;;5103763;27;20035;-73
2022/03/09 03:39:46;;;;;;;27.42;9.30;;;;;;;;;;5108915;27;20393;-74
2022/03/09 03:42:12;;;;;;;26.88;8.93;;;;;;;;;;5103552;27;20032;-76
2022/03/09 03:44:37;;;;;;;26.27;9.48;;;;;;;;;;5107774;28;20027;-74
2022/03/09 03:47:03;;;;;;;26.23;8.98;;;;;;;;;;5107122;27;20529;-74
2022/03/09 03:49:28;;;;;;;25.20;9.13;;;;;;;;;;5114783;27;20027;-76
2022/03/09 03:51:54;;;;;;;26.02;9.75;;;;;;;;;;5120344;27;20036;-74
2022/03/09 03:54:19;;;;;;;26.45;9.02;;;;;;;;;;5107861;27;20044;-75
2022/03/09 03:56:46;;;;;;;27.15;9.57;;;;;;;;;;5104580;27;20663;-74
2022/03/09 03:59:12;;;;;;;25.30;8.98;;;;;;;;;;5085208;28;20452;-75
2022/03/09 04:01:37;;;;;;;25.83;10.25;;;;;;;;;;5103432;27;20042;-74
2022/03/09 04:04:03;;;;;;;26.67;10.68;;;;;;;;;;5106754;27;20047;-75
2022/03/09 04:06:29;;;;;;;29.75;9.57;;;;;;;;;;5104092;27;20059;-74
2022/03/09 04:08:54;;;;;;;28.33;8.98;;;;;;;;;;5114611;27;20430;-74
2022/03/09 04:11:20;;;;;;;26.35;8.98;;;;;;;;;;5103724;28;20119;-75
2022/03/09 04:13:45;;;;;;;30.10;9.77;;;;;;;;;;5107134;27;20035;-74
2022/03/09 04:16:11;;;;;;;31.05;10.10;;;;;;;;;;5125277;27;20523;-75
2022/03/09 04:18:36;;;;;;;26.23;9.65;;;;;;;;;;5108015;28;20401;-74
2022/03/09 04:21:02;;;;;;;28.02;10.88;;;;;;;;;;5127601;27;20046;-75
2022/03/09 04:23:27;;;;;;;32.50;11.50;;;;;;;;;;5112916;27;20040;-74
2022/03/09 04:25:52;;;;;;;30.13;10.13;;;;;;;;;;5105137;27;20016;-76
2022/03/09 04:28:18;;;;;;;35.05;12.38;;;;;;;;;;5101884;27;20050;-74
2022/03/09 04:30:44;;;;;;;29.92;11.15;;;;;;;;;;5095477;27;20024;-76
2022/03/09 04:33:10;;;;;;;30.85;10.75;;;;;;;;;;5097846;27;20034;-74
2022/03/09 04:35:35;;;;;;;27.15;10.93;;;;;;;;;;5110036;27;20032;-75
2022/03/09 04:38:01;;;;;;;28.98;10.50;;;;;;;;;;5109357;27;20475;-75
2022/03/09 04:40:27;;;;;;;28.85;10.93;;;;;;;;;;5107808;27;20032;-74
2022/03/09 04:42:53;;;;;;;29.90;11.07;;;;;;;;;;5108870;27;20053;-75
2022/03/09 04:45:18;;;;;;;29.20;9.80;;;;;;;;;;5110061;27;20431;-76
2022/03/09 04:47:43;;;;;;;32.42;11.23;;;;;;;;;;5101834;27;20057;-76
2022/03/09 04:50:09;;;;;;;33.50;11.43;;;;;;;;;;5101845;28;20023;-75
2022/03/09 04:52:34;;;;;;;30.98;10.93;;;;;;;;;;5106041;27;20035;-75
2022/03/09 04:55:00;;;;;;;29.90;10.23;;;;;;;;;;5106251;27;20040;-74
2022/03/09 04:57:25;;;;;;;28.20;8.75;;;;;;;;;;5108659;28;20039;-76
2022/03/09 04:59:50;;;;;;;26.65;10.68;;;;;;;;;;5107318;27;20040;-75
2022/03/09 05:02:15;;;;;;;28.42;10.15;;;;;;;;;;5109080;27;20023;-75
2022/03/09 05:04:41;;;;;;;26.65;9.10;;;;;;;;;;5114724;27;20027;-75
2022/03/09 05:07:06;;;;;;;25.25;9.77;;;;;;;;;;5121010;27;20032;-75
2022/03/09 05:09:32;;;;;;;35.33;9.63;;;;;;;;;;5105697;27;20696;-76
2022/03/09 05:11:57;;;;;;;24.38;9.35;;;;;;;;;;5101021;27;20046;-74
2022/03/09 05:14:23;;;;;;;33.88;11.88;;;;;;;;;;5108411;27;20085;-74
2022/03/09 05:16:48;;;;;;;32.15;11.65;;;;;;;;;;5101649;27;20039;-76
2022/03/09 05:19:14;;;;;;;30.02;11.80;;;;;;;;;;5106008;28;20039;-75
2022/03/09 05:21:39;;;;;;;33.28;11.63;;;;;;;;;;5120731;27;20031;-74
2022/03/09 05:24:05;;;;;;;30.25;11.80;;;;;;;;;;5104661;27;20031;-74
2022/03/09 05:26:30;;;;;;;30.70;11.15;;;;;;;;;;5099836;28;20059;-74
2022/03/09 05:28:57;;;;;;;32.85;11.30;;;;;;;;;;5100787;28;20557;-74
2022/03/09 05:31:23;;;;;;;28.45;10.35;;;;;;;;;;5108117;27;20032;-75
2022/03/09 05:33:48;;;;;;;31.48;10.60;;;;;;;;;;5124244;27;20081;-74
2022/03/09 05:36:13;;;;;;;30.50;11.05;;;;;;;;;;5108175;27;20036;-75
2022/03/09 05:38:39;;;;;;;25.85;9.55;;;;;;;;;;5094982;28;20039;-75
2022/03/09 05:41:04;;;;;;;30.85;11.32;;;;;;;;;;5107749;27;20040;-76
2022/03/09 05:43:30;;;;;;;25.15;10.50;;;;;;;;;;5101441;27;20094;-74
2022/03/09 05:45:55;;;;;;;29.38;10.73;;;;;;;;;;5105811;27;20038;-74
2022/03/09 05:48:20;;;;;;;26.58;10.88;;;;;;;;;;5096054;27;20036;-76
2022/03/09 05:50:46;;;;;;;27.17;10.68;;;;;;;;;;5098149;27;20040;-75
2022/03/09 05:53:11;;;;;;;28.02;10.30;;;;;;;;;;5105449;28;20027;-74
2022/03/09 05:55:36;;;;;;;26.20;9.27;;;;;;;;;;5103628;27;20052;-75
2022/03/09 05:58:02;;;;;;;25.00;9.98;;;;;;;;;;5100702;28;20642;-74
2022/03/09 06:00:27;;;;;;;25.25;9.35;;;;;;;;;;5101712;27;20059;-75
2022/03/09 06:02:53;;;;;;;29.65;9.73;;;;;;;;;;5116371;27;20055;-74
2022/03/09 06:05:19;;;;;;;29.25;10.15;;;;;;;;;;5112226;27;20031;-75
2022/03/09 06:07:44;;;;;;;29.98;10.73;;;;;;;;;;5115634;28;20083;-75
2022/03/09 06:10:10;;;;;;;25.30;9.07;;;;;;;;;;5113940;28;20508;-74
2022/03/09 06:12:35;;;;;;;27.60;9.60;;;;;;;;;;5104137;27;20031;-74
2022/03/09 06:15:00;;;;;;;23.33;9.73;;;;;;;;;;5091150;28;20075;-75
2022/03/09 06:17:26;;;;;;;26.13;10.00;;;;;;;;;;5101262;28;20032;-74
2022/03/09 06:19:51;;;;;;;25.38;9.50;;;;;;;;;;5084942;28;20070;-74
2022/03/09 06:22:17;;;;;;;32.08;9.35;;;;;;;;;;5085748;28;20051;-75
2022/03/09 06:24:42;;;;;;;27.10;10.00;;;;;;;;;;5085813;28;20047;-74
2022/03/09 06:27:07;;;;;;;28.35;10.13;;;;;;;;;;5087558;28;20040;-76
2022/03/09 06:29:33;;;;;;;32.25;10.95;;;;;;;;;;5094865;27;20019;-74
2022/03/09 06:32:00;;;;;;;26.85;9.70;;;;;;;;;;5098703;28;20028;-75
2022/03/09 06:34:26;;;;;;;26.63;8.52;;;;;;;;;;5089094;27;20024;-74
2022/03/09 06:36:51;;;;;;;24.00;9.25;;;;;;;;;;5086698;28;20036;-74
2022/03/09 06:39:16;;;;;;;28.38;9.50;;;;;;;;;;5085643;27;20044;-74
2022/03/09 06:41:44;;;;;;;22.67;9.13;;;;;;;;;;5091085;27;20028;-75
2022/03/09 06:44:14;;;;;;;29.27;9.00;;;;;;;;;;5109229;28;20019;-76
2022/03/09 06:46:41;;;;;;;26.10;9.65;;;;;;;;;;5107443;27;20028;-75
2022/03/09 06:49:06;;;;;;;18.63;8.05;;;;;;;;;;5105908;27;20136;-74
2022/03/09 06:51:31;;;;;;;22.52;9.25;;;;;;;;;;5091266;27;20712;-75
2022/03/09 06:53:57;;;;;;;24.05;9.13;;;;;;;;;;5080468;27;20123;-75
2022/03/09 06:56:23;;;;;;;21.23;8.52;;;;;;;;;;5101285;27;20031;-74
2022/03/09 06:58:48;;;;;;;27.35;9.88;;;;;;;;;;5106630;27;20039;-75
2022/03/09 07:01:14;;;;;;;29.88;9.82;;;;;;;;;;5111001;27;20036;-74
2022/03/09 07:03:39;;;;;;;21.98;8.57;;;;;;;;;;5097838;27;20032;-74
2022/03/09 07:06:05;;;;;;;27.88;9.38;;;;;;;;;;5094800;27;20166;-74
2022/03/09 07:08:32;;;;;;;23.88;9.30;;;;;;;;;;5108156;27;20039;-74
2022/03/09 07:10:58;;;;;;;24.00;8.77;;;;;;;;;;5110526;27;20031;-74
2022/03/09 07:13:24;;;;;;;26.65;9.85;;;;;;;;;;5106787;27;20028;-74
2022/03/09 07:15:50;;;;;;;23.67;9.23;;;;;;;;;;5109442;27;20054;-74
2022/03/09 07:18:15;;;;;;;25.20;9.55;;;;;;;;;;5109697;27;20059;-75
2022/03/09 07:20:41;;;;;;;25.20;10.27;;;;;;;;;;5108367;27;20024;-75
2022/03/09 07:23:06;;;;;;;32.15;9.95;;;;;;;;;;5109067;28;20031;-73
2022/03/09 07:25:32;;;;;;;26.00;10.07;;;;;;;;;;5103022;28;20528;-74
2022/03/09 07:27:57;;;;;;;22.25;8.50;;;;;;;;;;5102776;27;20496;-74
2022/03/09 07:30:22;;;;;;;32.45;11.07;;;;;;;;;;5104585;27;20081;-74
2022/03/09 07:32:48;;;;;;;30.08;11.65;;;;;;;;;;5103670;27;20077;-74
2022/03/09 07:35:14;;;;;;;30.67;10.98;;;;;;;;;;5102674;27;20039;-75
2022/03/09 07:37:39;;;;;;;24.60;9.55;;;;;;;;;;5100047;27;20105;-74
2022/03/09 07:40:06;;;;;;;28.35;10.07;;;;;;;;;;5100803;28;20043;-74
2022/03/09 07:42:31;;;;;;;24.85;9.80;;;;;;;;;;5104646;27;20051;-74
2022/03/09 07:44:57;;;;;;;31.08;11.23;;;;;;;;;;5102380;28;20036;-77
2022/03/09 07:47:22;;;;;;;33.33;11.48;;;;;;;;;;5102315;27;20032;-74
2022/03/09 07:49:47;;;;;;;24.35;9.52;;;;;;;;;;5107875;27;20126;-75
2022/03/09 07:52:13;;;;;;;27.80;9.27;;;;;;;;;;5108590;27;20063;-74
2022/03/09 07:54:38;;;;;;;28.33;10.88;;;;;;;;;;5106692;28;20769;-75
2022/03/09 07:57:04;;;;;;;29.98;10.30;;;;;;;;;;5102744;28;20135;-74
2022/03/09 07:59:30;;;;;;;32.45;10.70;;;;;;;;;;5102410;27;20130;-76
2022/03/09 08:01:55;;;;;;;30.02;12.90;;;;;;;;;;5096217;27;20032;-71
2022/03/09 08:04:22;;;;;;;21.40;9.25;;;;;;;;;;5083986;27;20073;-71
2022/03/09 08:06:48;;;;;;;30.92;12.55;;;;;;;;;;5080059;28;20968;-76
2022/03/09 08:09:14;;;;;;;33.00;12.27;;;;;;;;;;5082011;28;20032;-71
2022/03/09 08:11:39;;;;;;;25.88;11.35;;;;;;;;;;5084127;28;20031;-71
2022/03/09 08:14:04;;;;;;;29.63;11.50;;;;;;;;;;5083363;28;20502;-74
2022/03/09 08:16:30;;;;;;;30.30;10.40;;;;;;;;;;5087004;28;20059;-73
2022/03/09 08:18:55;;;;;;;22.85;9.10;;;;;;;;;;5086797;28;20032;-74
2022/03/09 08:21:20;;;;;;;28.63;10.55;;;;;;;;;;5083977;28;20139;-75
2022/03/09 08:23:46;;;;;;;38.10;12.95;;;;;;;;;;5080176;28;21069;-70
2022/03/09 08:26:11;;;;;;;26.17;10.00;;;;;;;;;;5088166;28;20028;-71
2022/03/09 08:28:36;;;;;;;37.95;12.80;;;;;;;;;;5081126;28;20032;-71
2022/03/09 08:31:02;;;;;;;34.80;14.10;;;;;;;;;;5085668;28;20036;-72
2022/03/09 08:33:27;;;;;;;39.90;14.00;;;;;;;;;;5085239;28;20036;-75
2022/03/09 08:35:53;;;;;;;36.33;14.00;;;;;;;;;;5077508;28;20137;-77
2022/03/09 08:38:18;;;;;;;41.55;14.35;;;;;;;;;;5079584;28;20031;-77
2022/03/09 08:40:44;;;;;;;45.28;15.55;;;;;;;;;;5081064;28;20470;-78
2022/03/09 08:43:10;;;;;;;38.53;13.73;;;;;;;;;;5079520;28;20451;-77
2022/03/09 08:45:36;;;;;;;27.08;10.55;;;;;;;;;;5074126;28;20024;-76
2022/03/09 08:48:01;;;;;;;49.90;16.58;;;;;;;;;;5077208;28;20040;-76
2022/03/09 08:50:26;;;;;;;40.13;14.77;;;;;;;;;;5077272;28;20032;-76
2022/03/09 08:52:52;;;;;;;40.00;14.88;;;;;;;;;;5079711;28;20024;-78
2022/03/09 08:55:17;;;;;;;41.65;15.00;;;;;;;;;;5085270;28;20101;-76
2022/03/09 08:57:43;;;;;;;38.42;14.07;;;;;;;;;;5085436;28;20067;-75
2022/03/09 09:00:09;;;;;;;41.45;14.95;;;;;;;;;;5087574;27;20057;-75
2022/03/09 09:02:34;;;;;;;43.38;14.00;;;;;;;;;;5079807;28;20051;-76
2022/03/09 09:04:59;;;;;;;55.08;19.02;;;;;;;;;;5075313;28;20068;-76
2022/03/09 09:07:25;;;;;;;57.88;19.08;;;;;;;;;;5080603;28;20164;-76
2022/03/09 09:09:50;;;;;;;70.68;23.55;;;;;;;;;;5086508;28;20452;-77
2022/03/09 09:12:16;;;;;;;57.15;18.42;;;;;;;;;;5085307;28;20139;-77
2022/03/09 09:14:41;;;;;;;65.28;22.25;;;;;;;;;;5079076;28;20043;-71
2022/03/09 09:17:07;;;;;;;63.22;21.42;;;;;;;;;;5078984;28;20106;-75
2022/03/09 09:19:33;;;;;;;41.67;16.35;;;;;;;;;;5082640;28;20123;-76
2022/03/09 09:21:59;;;;;;;50.03;16.73;;;;;;;;;;5076280;28;20139;-80
2022/03/09 09:24:24;;;;;;;44.05;14.45;;;;;;;;;;5084467;28;20036;-81
2022/03/09 09:26:49;;;;;;;39.65;14.38;;;;;;;;;;5085886;28;20071;-81
2022/03/09 09:29:15;;;;;;;39.05;14.23;;;;;;;;;;5087705;28;20050;-81
2022/03/09 09:31:41;;;;;;;41.67;15.73;;;;;;;;;;5083653;28;20456;-78
2022/03/09 09:34:07;;;;;;;39.50;13.32;;;;;;;;;;5084617;28;20405;-77
2022/03/09 09:36:33;;;;;;;65.22;22.40;;;;;;;;;;5084418;28;20497;-77
2022/03/09 09:38:58;;;;;;;61.58;21.95;;;;;;;;;;5087664;27;20138;-76
2022/03/09 09:41:26;;;;;;;40.28;14.65;;;;;;;;;;5104171;27;20104;-77
2022/03/09 09:43:51;;;;;;;34.25;12.85;;;;;;;;;;5104486;28;20070;-77
2022/03/09 09:46:17;;;;;;;45.45;16.35;;;;;;;;;;5090594;27;20142;-77
2022/03/09 09:48:43;;;;;;;52.88;18.20;;;;;;;;;;5085183;27;20155;-77
2022/03/09 09:51:10;;;;;;;46.17;16.58;;;;;;;;;;5102832;27;20034;-77
2022/03/09 09:53:35;;;;;;;29.63;11.88;;;;;;;;;;5104793;27;20603;-74
2022/03/09 09:56:02;;;;;;;31.08;12.02;;;;;;;;;;5103893;27;20098;-75
2022/03/09 09:58:29;;;;;;;39.97;14.10;;;;;;;;;;5102655;27;20373;-75
2022/03/09 10:00:56;;;;;;;33.83;12.45;;;;;;;;;;5100999;27;20040;-74
2022/03/09 10:03:22;;;;;;;34.15;13.15;;;;;;;;;;5103792;28;20142;-76
2022/03/09 10:05:50;;;;;;;32.38;14.40;;;;;;;;;;5102195;27;20042;-74
2022/03/09 10:08:18;;;;;;;31.17;11.85;;;;;;;;;;5101536;28;20043;-74
2022/03/09 10:10:57;;;;;;;37.63;14.23;;;;;;;;;;5081174;28;20062;-72
2022/03/09 10:13:35;;;;;;;25.67;10.23;;;;;;;;;;5096955;28;20034;-70
2022/03/09 10:16:21;;;;;;;30.77;12.30;;;;;;;;;;5103532;27;20040;-72
2022/03/09 10:18:53;;;;;;;38.90;13.50;;;;;;;;;;5104556;27;20512;-73
2022/03/09 10:21:28;;;;;;;32.80;11.75;;;;;;;;;;5103481;27;20508;-75
2022/03/09 10:24:32;;;;;;;33.05;13.10;;;;;;;;;;5102571;27;20068;-73
2022/03/09 10:26:57;;;;;;;32.17;13.25;;;;;;;;;;5101380;28;20047;-75
2022/03/09 10:29:23;;;;;;;35.97;12.48;;;;;;;;;;5104446;28;20031;-74
2022/03/09 10:31:50;;;;;;;36.55;14.25;;;;;;;;;;5103395;28;20090;-74
2022/03/09 10:34:19;;;;;;;35.75;14.55;;;;;;;;;;5116408;27;20036;-75
2022/03/09 10:36:54;;;;;;;38.63;13.52;;;;;;;;;;5100026;27;20064;-74
2022/03/09 10:39:21;;;;;;;33.72;13.10;;;;;;;;;;5096651;28;20583;-75
2022/03/09 10:41:46;;;;;;;33.95;13.45;;;;;;;;;;5096247;27;20051;-77
2022/03/09 10:44:12;;;;;;;32.97;12.63;;;;;;;;;;5098923;28;20144;-74
2022/03/09 10:46:42;;;;;;;39.10;14.25;;;;;;;;;;5102587;27;20084;-74
2022/03/09 10:49:08;;;;;;;34.20;14.63;;;;;;;;;;5103369;27;20066;-75
2022/03/09 10:51:37;;;;;;;31.67;13.45;;;;;;;;;;5102944;27;20074;-74
2022/03/09 10:54:04;;;;;;;42.10;14.32;;;;;;;;;;5098580;28;20044;-74
2022/03/09 10:56:30;;;;;;;34.58;14.07;;;;;;;;;;5097894;28;20043;-74
2022/03/09 10:58:55;;;;;;;34.65;14.13;;;;;;;;;;5100278;28;20075;-75
2022/03/09 11:01:23;;;;;;;32.38;11.82;;;;;;;;;;5091923;27;20710;-74
2022/03/09 11:03:49;;;;;;;38.80;14.20;;;;;;;;;;5100372;27;20032;-74
2022/03/09 11:06:17;;;;;;;38.58;14.13;;;;;;;;;;5108085;27;20508;-74
2022/03/09 11:08:42;;;;;;;34.97;14.63;;;;;;;;;;5093512;27;20031;-76
2022/03/09 11:11:08;;;;;;;33.88;13.82;;;;;;;;;;5099472;28;20097;-73
2022/03/09 11:13:38;;;;;;;22.85;9.10;;;;;;;;;;5100246;28;20032;-75
2022/03/09 11:16:04;;;;;;;33.80;12.48;;;;;;;;;;5096592;28;20032;-78
2022/03/09 11:18:31;;;;;;;35.42;12.73;;;;;;;;;;5102231;27;20544;-78
2022/03/09 11:21:03;;;;;;;37.70;14.27;;;;;;;;;;5093057;28;20853;-78
2022/03/09 11:23:30;;;;;;;33.63;13.05;;;;;;;;;;5105845;27;20033;-73
2022/03/09 11:25:58;;;;;;;31.30;11.77;;;;;;;;;;5116554;27;20551;-74
2022/03/09 11:28:26;;;;;;;33.35;13.27;;;;;;;;;;5105121;27;20036;-74
2022/03/09 11:31:21;;;;;;;30.63;11.30;;;;;;;;;;5101509;27;20119;-72
2022/03/09 11:33:53;;;;;;;29.33;12.70;;;;;;;;;;5089520;27;20035;-78
2022/03/09 11:36:21;;;;;;;31.15;11.45;;;;;;;;;;5104560;28;20051;-74
2022/03/09 11:39:10;;;;;;;30.00;12.88;;;;;;;;;;5103906;27;20067;-76
2022/03/09 11:41:39;;;;;;;36.17;13.68;;;;;;;;;;5094498;27;20031;-72
2022/03/09 11:44:19;;;;;;;34.97;13.15;;;;;;;;;;5103138;27;20024;-73
2022/03/09 11:46:56;;;;;;;32.20;13.00;;;;;;;;;;5109225;27;20110;-74
2022/03/09 11:49:22;;;;;;;31.52;13.68;;;;;;;;;;5107435;27;20118;-84
2022/03/09 11:52:09;;;;;;;32.15;12.20;;;;;;;;;;5106623;27;20756;-81
2022/03/09 11:54:54;;;;;;;28.45;10.73;;;;;;;;;;5099386;27;20595;-76
2022/03/09 11:57:22;;;;;;;22.42;9.57;;;;;;;;;;5105835;27;20655;-78
2022/03/09 12:00:18;;;;;;;26.02;9.48;;;;;;;;;;5102518;27;20050;-77
2022/03/09 12:02:47;;;;;;;29.55;11.18;;;;;;;;;;5099170;27;20039;-74
2022/03/09 12:05:25;;;;;;;24.05;10.07;;;;;;;;;;5109022;27;20030;-79
2022/03/09 12:08:11;;;;;;;24.40;10.55;;;;;;;;;;5107017;27;20358;-75
2022/03/09 12:10:53;;;;;;;28.90;11.30;;;;;;;;;;5099151;28;20036;-75
2022/03/09 12:13:22;;;;;;;28.10;10.93;;;;;;;;;;5102258;27;20044;-75
2022/03/09 12:16:12;;;;;;;29.95;11.82;;;;;;;;;;5101559;27;20036;-75
2022/03/09 12:18:37;;;;;;;25.95;10.43;;;;;;;;;;5082579;28;20059;-75
2022/03/09 12:21:03;;;;;;;22.95;10.43;;;;;;;;;;5106507;27;20116;-75
2022/03/09 12:23:29;;;;;;;21.15;9.48;;;;;;;;;;5106248;27;20032;-75
2022/03/09 12:25:56;;;;;;;24.00;8.98;;;;;;;;;;5107374;28;21032;-75
2022/03/09 12:28:22;;;;;;;23.17;9.32;;;;;;;;;;5096017;27;20610;-75
2022/03/09 12:31:07;;;;;;;21.02;9.00;;;;;;;;;;5106755;27;20046;-76
2022/03/09 12:33:39;;;;;;;20.95;8.85;;;;;;;;;;5085813;27;20047;-75
2022/03/09 12:36:21;;;;;;;20.02;7.82;;;;;;;;;;5093079;27;20058;-73
2022/03/09 12:38:49;;;;;;;24.70;10.23;;;;;;;;;;5106543;27;20027;-77
2022/03/09 12:41:31;;;;;;;22.92;10.23;;;;;;;;;;5106737;27;20050;-72
2022/03/09 12:44:03;;;;;;;24.13;10.75;;;;;;;;;;5093073;27;20773;-72
2022/03/09 12:46:30;;;;;;;23.25;10.30;;;;;;;;;;5096332;27;20031;-75
2022/03/09 12:49:04;;;;;;;22.33;10.05;;;;;;;;;;5101612;27;20189;-73
2022/03/09 12:51:30;;;;;;;22.83;9.75;;;;;;;;;;5103358;27;20043;-75
2022/03/09 12:53:56;;;;;;;19.50;8.45;;;;;;;;;;5098771;28;20039;-75
2022/03/09 12:56:24;;;;;;;24.55;10.60;;;;;;;;;;5106229;27;20599;-74
2022/03/09 12:58:50;;;;;;;25.48;10.38;;;;;;;;;;5105630;27;20043;-78
2022/03/09 13:01:15;;;;;;;25.48;9.70;;;;;;;;;;5099962;28;20538;-76
2022/03/09 13:03:42;;;;;;;19.92;10.20;;;;;;;;;;5100110;27;20297;-76
2022/03/09 13:06:32;;;;;;;26.45;9.80;;;;;;;;;;5106220;27;20142;-74
2022/03/09 13:08:58;;;;;;;21.00;8.85;;;;;;;;;;5103832;27;20035;-73
2022/03/09 13:11:30;;;;;;;17.83;9.00;;;;;;;;;;5099702;28;20062;-74
2022/03/09 13:13:56;;;;;;;27.02;9.63;;;;;;;;;;5090957;27;20493;-74
2022/03/09 13:16:25;;;;;;;22.00;10.02;;;;;;;;;;5106511;27;20104;-76
2022/03/09 13:18:54;;;;;;;19.40;8.02;;;;;;;;;;5100683;27;20077;-74
2022/03/09 13:21:25;;;;;;;18.50;9.10;;;;;;;;;;5096742;27;20040;-77
2022/03/09 13:23:50;;;;;;;21.67;9.27;;;;;;;;;;5098579;27;20058;-77
2022/03/09 13:26:23;;;;;;;21.35;9.73;;;;;;;;;;5100932;27;20592;-76
2022/03/09 13:29:00;;;;;;;22.23;9.45;;;;;;;;;;5099256;28;20036;-79
2022/03/09 13:31:44;;;;;;;18.58;8.90;;;;;;;;;;5087880;27;20397;-74
2022/03/09 13:34:15;;;;;;;19.23;9.48;;;;;;;;;;5096116;27;20072;-73
2022/03/09 13:36:42;;;;;;;19.95;9.85;;;;;;;;;;5088480;28;20053;-76
2022/03/09 13:39:07;;;;;;;20.17;8.32;;;;;;;;;;5099801;27;20043;-78
2022/03/09 13:41:41;;;;;;;17.92;8.43;;;;;;;;;;5104533;27;20028;-80
2022/03/09 13:44:25;;;;;;;14.45;7.28;;;;;;;;;;5102973;28;20110;-73
2022/03/09 13:47:20;;;;;;;19.52;9.65;;;;;;;;;;5099808;28;20072;-79
2022/03/09 13:49:50;;;;;;;20.27;8.65;;;;;;;;;;5054876;28;20093;-75
2022/03/09 13:52:29;;;;;;;14.75;6.97;;;;;;;;;;5084436;28;20036;-78
2022/03/09 13:54:55;;;;;;;20.40;7.93;;;;;;;;;;5085449;28;20052;-80
2022/03/09 13:57:34;;;;;;;17.55;8.23;;;;;;;;;;5085070;27;20071;-77
2022/03/09 14:00:01;;;;;;;21.48;9.45;;;;;;;;;;5091819;27;20039;-78
2022/03/09 14:02:27;;;;;;;19.40;9.13;;;;;;;;;;5093460;27;20024;-76
2022/03/09 14:04:53;;;;;;;20.15;9.45;;;;;;;;;;5089124;28;20043;-78
2022/03/09 14:07:21;;;;;;;13.68;6.75;;;;;;;;;;5084220;28;20104;-76
2022/03/09 14:10:15;;;;;;;16.48;7.25;;;;;;;;;;5082942;28;20028;-76
2022/03/09 14:12:45;;;;;;;17.75;8.02;;;;;;;;;;5070298;28;20580;-75
2022/03/09 14:15:12;;;;;;;19.45;8.20;;;;;;;;;;5085553;27;20051;-80
2022/03/09 14:17:38;;;;;;;20.42;9.23;;;;;;;;;;5072150;27;20028;-80
2022/03/09 14:20:05;;;;;;;18.92;8.20;;;;;;;;;;5077308;28;20028;-80
2022/03/09 14:22:44;;;;;;;20.58;9.60;;;;;;;;;;5072238;28;20095;-75
2022/03/09 14:25:11;;;;;;;19.85;8.70;;;;;;;;;;5070427;28;20557;-76